sensor_id;sensor_type;location;lat;lon;timestamp;pressure;altitude;pressure_sealevel;temperature;humidity
69909;BME280;57190;47.918;8.112;2022-10-26T00:01:13;90929.78;;;11.04;80.83
69909;BME280;57190;47.918;8.112;2022-10-26T00:03:40;90920.72;;;11.10;80.46
69909;BME280;57190;47.918;8.112;2022-10-26T00:06:09;90915.38;;;11.15;80.29
69909;BME280;57190;47.918;8.112;2022-10-26T00:08:35;90904.16;;;11.03;80.63
69909;BME280;57190;47.918;8.112;2022-10-26T00:11:01;90889.22;;;10.97;81.43
69909;BME280;57190;47.918;8.112;2022-10-26T00:13:27;90885.22;;;10.89;82.00
69909;BME280;57190;47.918;8.112;2022-10-26T00:15:53;90904.44;;;10.81;82.65
69909;BME280;57190;47.918;8.112;2022-10-26T00:18:18;90907.13;;;10.91;82.00
69909;BME280;57190;47.918;8.112;2022-10-26T00:20:44;90913.78;;;11.04;81.20
69909;BME280;57190;47.918;8.112;2022-10-26T00:23:09;90918.84;;;11.11;80.31
69909;BME280;57190;47.918;8.112;2022-10-26T00:25:35;90926.31;;;11.19;79.59
69909;BME280;57190;47.918;8.112;2022-10-26T00:28:00;90932.72;;;10.97;79.42
69909;BME280;57190;47.918;8.112;2022-10-26T00:30:26;90926.84;;;10.75;79.94
69909;BME280;57190;47.918;8.112;2022-10-26T00:32:51;90935.66;;;10.65;80.54
69909;BME280;57190;47.918;8.112;2022-10-26T00:35:17;90935.13;;;10.58;80.61
69909;BME280;57190;47.918;8.112;2022-10-26T00:37:43;90929.50;;;10.49;80.66
69909;BME280;57190;47.918;8.112;2022-10-26T00:40:08;90927.63;;;10.49;80.68
69909;BME280;57190;47.918;8.112;2022-10-26T00:42:34;90934.06;;;10.64;80.99
69909;BME280;57190;47.918;8.112;2022-10-26T00:45:04;90931.38;;;10.69;81.09
69909;BME280;57190;47.918;8.112;2022-10-26T00:47:39;90935.66;;;10.75;81.19
69909;BME280;57190;47.918;8.112;2022-10-26T00:50:10;90934.06;;;10.84;80.62
69909;BME280;57190;47.918;8.112;2022-10-26T00:52:37;90930.31;;;10.85;80.83
69909;BME280;57190;47.918;8.112;2022-10-26T00:55:05;90927.94;;;10.89;80.38
69909;BME280;57190;47.918;8.112;2022-10-26T00:57:31;90919.38;;;10.82;79.95
69909;BME280;57190;47.918;8.112;2022-10-26T00:59:57;90919.91;;;10.74;80.29
69909;BME280;57190;47.918;8.112;2022-10-26T01:02:24;90914.56;;;10.58;80.51
69909;BME280;57190;47.918;8.112;2022-10-26T01:04:49;90914.00;;;10.46;80.76
69909;BME280;57190;47.918;8.112;2022-10-26T01:07:15;90930.81;;;10.41;81.54
69909;BME280;57190;47.918;8.112;2022-10-26T01:09:41;90940.41;;;10.42;81.52
69909;BME280;57190;47.918;8.112;2022-10-26T01:12:06;90937.22;;;10.45;81.53
69909;BME280;57190;47.918;8.112;2022-10-26T01:14:33;90934.56;;;10.45;81.33
69909;BME280;57190;47.918;8.112;2022-10-26T01:22:23;90946.53;;;10.37;81.71
69909;BME280;57190;47.918;8.112;2022-10-26T01:27:42;90941.44;;;10.36;82.15
69909;BME280;57190;47.918;8.112;2022-10-26T01:30:32;90942.84;;;10.54;81.72
69909;BME280;57190;47.918;8.112;2022-10-26T01:33:19;90945.00;;;10.67;81.35
69909;BME280;57190;47.918;8.112;2022-10-26T01:35:59;90942.88;;;10.75;80.89
69909;BME280;57190;47.918;8.112;2022-10-26T01:40:59;90951.13;;;10.68;81.26
69909;BME280;57190;47.918;8.112;2022-10-26T01:43:31;90958.09;;;10.74;81.17
69909;BME280;57190;47.918;8.112;2022-10-26T01:45:59;90959.41;;;10.77;81.12
69909;BME280;57190;47.918;8.112;2022-10-26T01:48:26;90965.03;;;10.85;80.68
69909;BME280;57190;47.918;8.112;2022-10-26T01:50:54;90971.44;;;10.90;80.60
69909;BME280;57190;47.918;8.112;2022-10-26T01:53:21;90977.84;;;10.89;80.41
69909;BME280;57190;47.918;8.112;2022-10-26T01:55:52;90988.50;;;10.94;80.24
69909;BME280;57190;47.918;8.112;2022-10-26T01:58:31;90994.13;;;10.92;80.35
69909;BME280;57190;47.918;8.112;2022-10-26T02:04:44;91018.13;;;10.92;80.18
69909;BME280;57190;47.918;8.112;2022-10-26T02:10:29;91017.88;;;11.04;79.48
69909;BME280;57190;47.918;8.112;2022-10-26T02:13:18;91013.06;;;11.01;79.63
69909;BME280;57190;47.918;8.112;2022-10-26T02:21:46;91009.88;;;11.04;78.80
69909;BME280;57190;47.918;8.112;2022-10-26T02:24:15;91003.47;;;11.05;78.77
69909;BME280;57190;47.918;8.112;2022-10-26T02:26:43;91010.69;;;11.10;78.37
69909;BME280;57190;47.918;8.112;2022-10-26T02:29:13;91009.06;;;11.14;78.09
69909;BME280;57190;47.918;8.112;2022-10-26T02:31:41;91005.59;;;11.08;78.75
69909;BME280;57190;47.918;8.112;2022-10-26T02:34:10;90999.19;;;11.09;78.97
69909;BME280;57190;47.918;8.112;2022-10-26T02:36:41;90994.91;;;11.08;79.53
69909;BME280;57190;47.918;8.112;2022-10-26T02:39:09;90997.06;;;11.06;80.16
69909;BME280;57190;47.918;8.112;2022-10-26T02:41:35;90984.00;;;11.10;80.48
69909;BME280;57190;47.918;8.112;2022-10-26T02:44:20;90994.13;;;11.08;80.82
69909;BME280;57190;47.918;8.112;2022-10-26T02:46:48;90981.56;;;11.08;81.01
69909;BME280;57190;47.918;8.112;2022-10-26T02:49:14;90974.63;;;11.02;81.22
69909;BME280;57190;47.918;8.112;2022-10-26T02:51:49;90959.41;;;10.97;81.82
69909;BME280;57190;47.918;8.112;2022-10-26T02:57:04;90978.91;;;10.88;83.02
69909;BME280;57190;47.918;8.112;2022-10-26T02:59:33;90978.91;;;10.88;82.93
69909;BME280;57190;47.918;8.112;2022-10-26T03:02:01;90969.81;;;10.94;83.01
69909;BME280;57190;47.918;8.112;2022-10-26T03:04:32;90976.78;;;10.90;83.00
69909;BME280;57190;47.918;8.112;2022-10-26T03:06:58;90979.16;;;10.91;83.26
69909;BME280;57190;47.918;8.112;2022-10-26T03:09:23;90968.47;;;10.96;82.95
69909;BME280;57190;47.918;8.112;2022-10-26T03:11:49;90953.56;;;10.95;83.09
69909;BME280;57190;47.918;8.112;2022-10-26T03:14:14;90958.09;;;10.95;82.85
69909;BME280;57190;47.918;8.112;2022-10-26T03:16:40;90958.34;;;10.88;83.21
69909;BME280;57190;47.918;8.112;2022-10-26T03:19:05;90962.06;;;10.87;83.37
69909;BME280;57190;47.918;8.112;2022-10-26T03:21:30;90965.03;;;10.85;83.56
69909;BME280;57190;47.918;8.112;2022-10-26T03:23:56;90965.28;;;10.84;83.42
69909;BME280;57190;47.918;8.112;2022-10-26T03:26:22;90972.75;;;10.82;83.58
69909;BME280;57190;47.918;8.112;2022-10-26T03:28:47;90981.56;;;10.88;83.44
69909;BME280;57190;47.918;8.112;2022-10-26T03:31:12;90980.78;;;11.03;82.69
69909;BME280;57190;47.918;8.112;2022-10-26T03:33:38;90979.19;;;11.01;82.64
69909;BME280;57190;47.918;8.112;2022-10-26T03:36:04;90974.38;;;11.04;82.62
69909;BME280;57190;47.918;8.112;2022-10-26T03:38:29;90971.44;;;11.05;82.63
69909;BME280;57190;47.918;8.112;2022-10-26T03:40:55;90967.94;;;11.05;82.79
69909;BME280;57190;47.918;8.112;2022-10-26T03:43:20;90969.84;;;11.04;83.17
69909;BME280;57190;47.918;8.112;2022-10-26T03:45:46;90973.84;;;11.07;83.16
69909;BME280;57190;47.918;8.112;2022-10-26T03:48:11;90978.38;;;11.06;83.28
69909;BME280;57190;47.918;8.112;2022-10-26T03:50:37;90989.31;;;11.10;83.13
69909;BME280;57190;47.918;8.112;2022-10-26T03:53:03;90997.59;;;11.13;82.90
69909;BME280;57190;47.918;8.112;2022-10-26T03:55:28;91005.06;;;11.16;82.97
69909;BME280;57190;47.918;8.112;2022-10-26T03:57:53;91007.72;;;11.16;83.04
69909;BME280;57190;47.918;8.112;2022-10-26T04:00:19;90996.25;;;11.16;83.02
69909;BME280;57190;47.918;8.112;2022-10-26T04:02:52;90985.84;;;11.14;83.21
69909;BME280;57190;47.918;8.112;2022-10-26T04:05:18;90986.09;;;11.13;83.34
69909;BME280;57190;47.918;8.112;2022-10-26T04:07:43;90978.66;;;11.10;83.64
69909;BME280;57190;47.918;8.112;2022-10-26T04:10:09;90980.25;;;11.11;83.74
69909;BME280;57190;47.918;8.112;2022-10-26T04:12:38;90975.69;;;11.11;83.90
69909;BME280;57190;47.918;8.112;2022-10-26T04:15:04;90976.25;;;11.13;83.78
69909;BME280;57190;47.918;8.112;2022-10-26T04:17:31;90981.31;;;11.10;83.65
69909;BME280;57190;47.918;8.112;2022-10-26T04:19:56;90978.66;;;11.10;83.93
69909;BME280;57190;47.918;8.112;2022-10-26T04:22:22;90967.97;;;11.15;83.92
69909;BME280;57190;47.918;8.112;2022-10-26T04:24:47;90959.16;;;11.20;83.85
69909;BME280;57190;47.918;8.112;2022-10-26T04:27:14;90967.69;;;11.22;83.85
69909;BME280;57190;47.918;8.112;2022-10-26T04:29:39;90973.31;;;11.20;83.76
69909;BME280;57190;47.918;8.112;2022-10-26T04:32:05;90972.22;;;11.16;83.88
69909;BME280;57190;47.918;8.112;2022-10-26T04:34:31;90965.28;;;11.15;83.92
69909;BME280;57190;47.918;8.112;2022-10-26T04:36:57;90960.22;;;11.13;84.02
69909;BME280;57190;47.918;8.112;2022-10-26T04:39:22;90965.31;;;11.10;84.13
69909;BME280;57190;47.918;8.112;2022-10-26T04:41:48;90965.28;;;11.05;85.09
69909;BME280;57190;47.918;8.112;2022-10-26T04:44:14;90970.38;;;11.06;84.60
69909;BME280;57190;47.918;8.112;2022-10-26T04:46:39;90975.44;;;11.08;84.75
69909;BME280;57190;47.918;8.112;2022-10-26T04:49:04;90991.19;;;11.09;84.63
69909;BME280;57190;47.918;8.112;2022-10-26T04:51:30;90988.50;;;11.09;84.74
69909;BME280;57190;47.918;8.112;2022-10-26T04:53:57;91002.66;;;11.05;86.21
69909;BME280;57190;47.918;8.112;2022-10-26T04:56:22;90994.94;;;11.13;86.46
69909;BME280;57190;47.918;8.112;2022-10-26T04:58:48;90988.53;;;11.25;85.93
69909;BME280;57190;47.918;8.112;2022-10-26T05:01:13;90988.25;;;11.31;84.94
69909;BME280;57190;47.918;8.112;2022-10-26T05:03:39;90997.34;;;11.36;84.59
69909;BME280;57190;47.918;8.112;2022-10-26T05:06:04;90999.75;;;11.32;84.67
69909;BME280;57190;47.918;8.112;2022-10-26T05:08:30;90995.47;;;11.31;84.50
69909;BME280;57190;47.918;8.112;2022-10-26T05:10:55;91001.88;;;11.25;84.93
69909;BME280;57190;47.918;8.112;2022-10-26T05:13:22;90999.22;;;11.25;84.96
69909;BME280;57190;47.918;8.112;2022-10-26T05:15:51;90998.94;;;11.26;84.62
69909;BME280;57190;47.918;8.112;2022-10-26T05:18:16;90991.44;;;11.23;84.66
69909;BME280;57190;47.918;8.112;2022-10-26T05:20:42;90995.19;;;11.17;84.36
69909;BME280;57190;47.918;8.112;2022-10-26T05:23:10;90990.66;;;11.17;84.26
69909;BME280;57190;47.918;8.112;2022-10-26T05:25:36;90997.88;;;11.12;84.12
69909;BME280;57190;47.918;8.112;2022-10-26T05:28:08;91003.47;;;11.05;84.10
69909;BME280;57190;47.918;8.112;2022-10-26T05:30:38;91004.28;;;11.00;84.07
69909;BME280;57190;47.918;8.112;2022-10-26T05:33:04;91006.13;;;10.95;84.06
69909;BME280;57190;47.918;8.112;2022-10-26T05:35:31;91011.47;;;10.90;84.23
69909;BME280;57190;47.918;8.112;2022-10-26T05:37:56;91019.44;;;10.84;84.34
69909;BME280;57190;47.918;8.112;2022-10-26T05:40:23;91019.19;;;10.86;84.13
69909;BME280;57190;47.918;8.112;2022-10-26T05:42:49;91022.13;;;10.84;84.47
69909;BME280;57190;47.918;8.112;2022-10-26T05:45:17;91032.00;;;10.84;84.25
69909;BME280;57190;47.918;8.112;2022-10-26T05:47:44;91026.13;;;10.87;84.55
69909;BME280;57190;47.918;8.112;2022-10-26T05:50:10;91027.44;;;10.84;84.76
69909;BME280;57190;47.918;8.112;2022-10-26T05:52:39;91028.78;;;10.82;84.67
69909;BME280;57190;47.918;8.112;2022-10-26T05:55:09;91033.31;;;10.76;84.88
69909;BME280;57190;47.918;8.112;2022-10-26T05:57:36;91043.72;;;10.73;84.50
69909;BME280;57190;47.918;8.112;2022-10-26T06:00:06;91047.72;;;10.70;84.52
69909;BME280;57190;47.918;8.112;2022-10-26T06:05:07;91051.94;;;10.61;84.13
69909;BME280;57190;47.918;8.112;2022-10-26T06:07:35;91051.94;;;10.61;84.27
69909;BME280;57190;47.918;8.112;2022-10-26T06:10:01;91060.72;;;10.51;84.35
69909;BME280;57190;47.918;8.112;2022-10-26T06:12:27;91063.94;;;10.53;84.37
69909;BME280;57190;47.918;8.112;2022-10-26T06:14:53;91066.06;;;10.51;84.81
69909;BME280;57190;47.918;8.112;2022-10-26T06:30:58;91073.75;;;10.42;84.06
69909;BME280;57190;47.918;8.112;2022-10-26T06:33:24;91073.22;;;10.40;83.56
69909;BME280;57190;47.918;8.112;2022-10-26T06:38:26;91079.63;;;10.39;83.59
69909;BME280;57190;47.918;8.112;2022-10-26T06:40:54;91088.69;;;10.43;83.51
69909;BME280;57190;47.918;8.112;2022-10-26T06:43:29;91090.84;;;10.46;83.27
69909;BME280;57190;47.918;8.112;2022-10-26T06:46:24;91095.94;;;10.53;83.45
69909;BME280;57190;47.918;8.112;2022-10-26T06:51:14;91101.34;;;10.79;82.95
69909;BME280;57190;47.918;8.112;2022-10-26T06:53:52;91100.84;;;10.82;82.33
69909;BME280;57190;47.918;8.112;2022-10-26T06:56:22;91102.44;;;10.88;82.30
69909;BME280;57190;47.918;8.112;2022-10-26T06:58:51;91102.75;;;10.97;81.95
69909;BME280;57190;47.918;8.112;2022-10-26T07:01:17;91107.34;;;11.12;81.48
69909;BME280;57190;47.918;8.112;2022-10-26T07:03:43;91115.06;;;11.19;81.27
69909;BME280;57190;47.918;8.112;2022-10-26T07:06:08;91112.97;;;11.31;81.45
69909;BME280;57190;47.918;8.112;2022-10-26T07:08:34;91115.91;;;11.40;81.27
69909;BME280;57190;47.918;8.112;2022-10-26T07:10:59;91116.97;;;11.28;81.09
69909;BME280;57190;47.918;8.112;2022-10-26T07:13:25;91124.41;;;11.11;81.63
69909;BME280;57190;47.918;8.112;2022-10-26T07:15:50;91131.31;;;11.07;81.65
69909;BME280;57190;47.918;8.112;2022-10-26T07:18:16;91131.88;;;11.09;81.96
69909;BME280;57190;47.918;8.112;2022-10-26T07:20:41;91139.09;;;11.19;81.66
69909;BME280;57190;47.918;8.112;2022-10-26T07:23:08;91138.84;;;11.30;81.58
69909;BME280;57190;47.918;8.112;2022-10-26T07:25:37;91141.03;;;11.44;80.90
69909;BME280;57190;47.918;8.112;2022-10-26T07:28:06;91148.25;;;11.54;80.84
69909;BME280;57190;47.918;8.112;2022-10-26T07:30:33;91155.50;;;11.79;80.47
69909;BME280;57190;47.918;8.112;2022-10-26T07:33:04;91153.09;;;11.98;80.02
69909;BME280;57190;47.918;8.112;2022-10-26T07:35:31;91156.56;;;12.09;79.80
69909;BME280;57190;47.918;8.112;2022-10-26T07:37:57;91164.31;;;12.31;79.07
69909;BME280;57190;47.918;8.112;2022-10-26T07:40:23;91167.28;;;13.71;76.96
69909;BME280;57190;47.918;8.112;2022-10-26T07:42:49;91173.00;;;16.92;67.81
69909;BME280;57190;47.918;8.112;2022-10-26T07:45:15;91162.25;;;18.90;60.64
69909;BME280;57190;47.918;8.112;2022-10-26T07:47:40;91169.16;;;17.12;62.12
69909;BME280;57190;47.918;8.112;2022-10-26T07:50:06;91172.47;;;15.96;64.85
69909;BME280;57190;47.918;8.112;2022-10-26T07:52:32;91185.88;;;16.81;63.28
69909;BME280;57190;47.918;8.112;2022-10-26T07:55:00;91177.97;;;21.17;53.88
69909;BME280;57190;47.918;8.112;2022-10-26T07:57:25;91181.94;;;25.66;42.30
69909;BME280;57190;47.918;8.112;2022-10-26T07:59:51;91183.59;;;27.33;37.38
69909;BME280;57190;47.918;8.112;2022-10-26T08:02:16;91191.56;;;29.94;35.83
69909;BME280;57190;47.918;8.112;2022-10-26T08:04:42;91191.34;;;29.35;33.87
69909;BME280;57190;47.918;8.112;2022-10-26T08:07:08;91181.47;;;23.84;42.47
69909;BME280;57190;47.918;8.112;2022-10-26T08:09:33;91190.19;;;20.85;48.68
69909;BME280;57190;47.918;8.112;2022-10-26T08:11:59;91186.72;;;19.16;52.95
69909;BME280;57190;47.918;8.112;2022-10-26T08:14:25;91196.28;;;18.22;56.26
69909;BME280;57190;47.918;8.112;2022-10-26T08:16:52;91202.72;;;17.62;57.68
69909;BME280;57190;47.918;8.112;2022-10-26T08:19:18;91198.03;;;17.26;59.28
69909;BME280;57190;47.918;8.112;2022-10-26T08:21:43;91190.50;;;17.09;60.54
69909;BME280;57190;47.918;8.112;2022-10-26T08:24:09;91203.06;;;16.86;61.78
69909;BME280;57190;47.918;8.112;2022-10-26T08:26:34;91205.38;;;16.59;63.39
69909;BME280;57190;47.918;8.112;2022-10-26T08:29:00;91202.59;;;16.31;64.56
69909;BME280;57190;47.918;8.112;2022-10-26T08:31:25;91201.47;;;16.18;64.53
69909;BME280;57190;47.918;8.112;2022-10-26T08:33:54;91203.53;;;16.22;64.08
69909;BME280;57190;47.918;8.112;2022-10-26T08:36:23;91202.41;;;16.28;63.67
69909;BME280;57190;47.918;8.112;2022-10-26T08:38:49;91202.66;;;16.26;64.16
69909;BME280;57190;47.918;8.112;2022-10-26T08:41:14;91208.66;;;16.23;64.34
69909;BME280;57190;47.918;8.112;2022-10-26T08:43:53;91211.72;;;15.97;64.91
69909;BME280;57190;47.918;8.112;2022-10-26T08:46:25;91213.81;;;16.00;65.44
69909;BME280;57190;47.918;8.112;2022-10-26T08:48:59;91213.81;;;16.00;66.21
69909;BME280;57190;47.918;8.112;2022-10-26T08:51:28;91220.88;;;16.15;65.89
69909;BME280;57190;47.918;8.112;2022-10-26T08:54:04;91226.22;;;16.34;65.28
69909;BME280;57190;47.918;8.112;2022-10-26T08:56:54;91221.63;;;16.54;64.82
69909;BME280;57190;47.918;8.112;2022-10-26T08:59:33;91229.06;;;16.76;63.54
69909;BME280;57190;47.918;8.112;2022-10-26T09:02:00;91222.06;;;16.75;63.34
69909;BME280;57190;47.918;8.112;2022-10-26T09:04:28;91222.59;;;16.77;63.07
69909;BME280;57190;47.918;8.112;2022-10-26T09:10:37;91220.69;;;16.78;63.25
69909;BME280;57190;47.918;8.112;2022-10-26T09:21:47;91226.34;;;16.95;63.50
69909;BME280;57190;47.918;8.112;2022-10-26T09:27:11;91231.13;;;16.65;62.68
69909;BME280;57190;47.918;8.112;2022-10-26T09:29:43;91236.59;;;16.60;62.81
69909;BME280;57190;47.918;8.112;2022-10-26T09:32:37;91240.97;;;16.56;62.57
69909;BME280;57190;47.918;8.112;2022-10-26T09:35:12;91245.75;;;16.59;60.80
69909;BME280;57190;47.918;8.112;2022-10-26T09:37:43;91236.53;;;16.65;60.04
69909;BME280;57190;47.918;8.112;2022-10-26T09:40:15;91238.72;;;16.63;61.90
69909;BME280;57190;47.918;8.112;2022-10-26T09:42:53;91243.22;;;16.68;61.54
69909;BME280;57190;47.918;8.112;2022-10-26T09:45:57;91250.88;;;16.75;60.91
69909;BME280;57190;47.918;8.112;2022-10-26T09:48:32;91259.56;;;16.72;62.05
69909;BME280;57190;47.918;8.112;2022-10-26T09:51:01;91262.78;;;16.74;62.86
69909;BME280;57190;47.918;8.112;2022-10-26T09:53:26;91264.19;;;16.85;60.78
69909;BME280;57190;47.918;8.112;2022-10-26T09:56:24;91272.69;;;16.78;60.81
69909;BME280;57190;47.918;8.112;2022-10-26T09:58:57;91276.00;;;16.89;60.33
69909;BME280;57190;47.918;8.112;2022-10-26T10:06:37;91285.78;;;16.66;62.47
69909;BME280;57190;47.918;8.112;2022-10-26T10:09:17;91284.09;;;17.36;60.14
69909;BME280;57190;47.918;8.112;2022-10-26T10:11:57;91285.41;;;17.95;58.98
69909;BME280;57190;47.918;8.112;2022-10-26T10:14:28;91281.91;;;18.59;57.64
69909;BME280;57190;47.918;8.112;2022-10-26T10:16:55;91285.34;;;18.73;57.45
69909;BME280;57190;47.918;8.112;2022-10-26T10:19:41;91287.72;;;18.75;57.21
69909;BME280;57190;47.918;8.112;2022-10-26T10:24:34;91286.22;;;19.05;55.12
69909;BME280;57190;47.918;8.112;2022-10-26T10:29:42;91296.69;;;18.84;56.12
69909;BME280;57190;47.918;8.112;2022-10-26T10:32:21;91294.38;;;18.91;57.25
69909;BME280;57190;47.918;8.112;2022-10-26T10:34:49;91297.91;;;18.55;57.57
69909;BME280;57190;47.918;8.112;2022-10-26T10:37:37;91303.38;;;18.27;57.55
69909;BME280;57190;47.918;8.112;2022-10-26T10:40:08;91297.47;;;18.25;57.34
69909;BME280;57190;47.918;8.112;2022-10-26T10:42:41;91295.66;;;18.34;57.36
69909;BME280;57190;47.918;8.112;2022-10-26T10:45:24;91295.06;;;18.37;57.18
69909;BME280;57190;47.918;8.112;2022-10-26T10:48:04;91303.88;;;18.29;56.40
69909;BME280;57190;47.918;8.112;2022-10-26T10:50:53;91312.56;;;18.40;57.41
69909;BME280;57190;47.918;8.112;2022-10-26T10:53:24;91303.94;;;18.52;56.70
69909;BME280;57190;47.918;8.112;2022-10-26T11:01:48;91309.69;;;18.22;56.99
69909;BME280;57190;47.918;8.112;2022-10-26T11:04:28;91318.28;;;18.25;56.60
69909;BME280;57190;47.918;8.112;2022-10-26T11:07:02;91309.88;;;18.26;56.80
69909;BME280;57190;47.918;8.112;2022-10-26T11:09:31;91314.06;;;18.32;56.47
69909;BME280;57190;47.918;8.112;2022-10-26T11:12:09;91314.44;;;18.76;56.91
69909;BME280;57190;47.918;8.112;2022-10-26T11:14:42;91305.16;;;18.68;55.66
69909;BME280;57190;47.918;8.112;2022-10-26T11:17:23;91308.19;;;18.90;55.35
69909;BME280;57190;47.918;8.112;2022-10-26T11:20:28;91310.81;;;18.81;54.58
69909;BME280;57190;47.918;8.112;2022-10-26T11:23:04;91311.28;;;19.20;53.81
69909;BME280;57190;47.918;8.112;2022-10-26T11:25:55;91316.13;;;19.31;53.26
69909;BME280;57190;47.918;8.112;2022-10-26T11:30:53;91315.69;;;19.38;52.90
69909;BME280;57190;47.918;8.112;2022-10-26T11:33:25;91306.81;;;19.46;52.34
69909;BME280;57190;47.918;8.112;2022-10-26T11:36:07;91312.13;;;19.52;53.09
69909;BME280;57190;47.918;8.112;2022-10-26T11:41:19;91313.81;;;19.79;52.77
69909;BME280;57190;47.918;8.112;2022-10-26T11:43:48;91321.72;;;19.98;52.69
69909;BME280;57190;47.918;8.112;2022-10-26T11:48:47;91315.41;;;19.80;52.33
69909;BME280;57190;47.918;8.112;2022-10-26T11:51:37;91316.03;;;19.77;51.68
69909;BME280;57190;47.918;8.112;2022-10-26T11:54:18;91314.53;;;19.85;52.96
69909;BME280;57190;47.918;8.112;2022-10-26T11:56:48;91315.16;;;19.90;51.60
69909;BME280;57190;47.918;8.112;2022-10-26T11:59:19;91317.41;;;19.88;51.69
69909;BME280;57190;47.918;8.112;2022-10-26T12:01:54;91316.31;;;19.98;50.54
69909;BME280;57190;47.918;8.112;2022-10-26T12:04:29;91319.34;;;20.05;51.70
69909;BME280;57190;47.918;8.112;2022-10-26T12:06:58;91318.91;;;20.21;51.88
69909;BME280;57190;47.918;8.112;2022-10-26T12:09:33;91318.94;;;20.30;51.67
69909;BME280;57190;47.918;8.112;2022-10-26T12:12:10;91314.88;;;20.01;51.53
69909;BME280;57190;47.918;8.112;2022-10-26T12:14:47;91317.56;;;19.92;52.84
69909;BME280;57190;47.918;8.112;2022-10-26T12:17:25;91317.09;;;19.99;52.70
69909;BME280;57190;47.918;8.112;2022-10-26T12:20:02;91315.41;;;19.80;52.57
69909;BME280;57190;47.918;8.112;2022-10-26T12:22:33;91319.19;;;19.70;53.45
69909;BME280;57190;47.918;8.112;2022-10-26T12:35:09;91339.25;;;19.15;53.92
69909;BME280;57190;47.918;8.112;2022-10-26T12:37:48;91338.84;;;18.85;53.34
69909;BME280;57190;47.918;8.112;2022-10-26T12:48:40;91340.06;;;18.42;53.57
69909;BME280;57190;47.918;8.112;2022-10-26T12:56:50;91350.78;;;18.70;52.93
69909;BME280;57190;47.918;8.112;2022-10-26T13:07:32;91366.66;;;18.35;54.25
69909;BME280;57190;47.918;8.112;2022-10-26T13:10:02;91362.59;;;17.96;54.48
69909;BME280;57190;47.918;8.112;2022-10-26T13:12:37;91366.34;;;17.81;54.84
69909;BME280;57190;47.918;8.112;2022-10-26T13:15:05;91362.81;;;17.52;55.32
69909;BME280;57190;47.918;8.112;2022-10-26T13:17:52;91365.84;;;17.65;54.76
69909;BME280;57190;47.918;8.112;2022-10-26T13:20:19;91362.34;;;17.78;54.60
69909;BME280;57190;47.918;8.112;2022-10-26T13:22:46;91367.44;;;17.94;54.28
69909;BME280;57190;47.918;8.112;2022-10-26T13:25:25;91355.72;;;18.03;54.52
69909;BME280;57190;47.918;8.112;2022-10-26T13:28:04;91365.28;;;18.10;54.99
69909;BME280;57190;47.918;8.112;2022-10-26T13:32:59;91367.59;;;18.16;54.58
69909;BME280;57190;47.918;8.112;2022-10-26T13:35:26;91363.38;;;18.10;54.55
69909;BME280;57190;47.918;8.112;2022-10-26T13:37:54;91365.38;;;18.18;55.01
69909;BME280;57190;47.918;8.112;2022-10-26T13:40:25;91357.47;;;18.22;54.70
69909;BME280;57190;47.918;8.112;2022-10-26T13:42:57;91360.16;;;18.22;55.31
69909;BME280;57190;47.918;8.112;2022-10-26T13:45:38;91360.16;;;18.22;55.50
69909;BME280;57190;47.918;8.112;2022-10-26T13:48:40;91362.47;;;18.15;54.75
69909;BME280;57190;47.918;8.112;2022-10-26T13:51:21;91369.94;;;17.90;55.24
69909;BME280;57190;47.918;8.112;2022-10-26T13:56:30;91369.94;;;17.90;55.90
69909;BME280;57190;47.918;8.112;2022-10-26T13:59:11;91372.50;;;17.53;56.36
69909;BME280;57190;47.918;8.112;2022-10-26T14:01:38;91375.56;;;17.33;56.97
69909;BME280;57190;47.918;8.112;2022-10-26T14:04:18;91379.88;;;17.48;56.77
69909;BME280;57190;47.918;8.112;2022-10-26T14:06:51;91377.81;;;17.58;56.12
69909;BME280;57190;47.918;8.112;2022-10-26T14:09:19;91383.06;;;17.36;57.51
69909;BME280;57190;47.918;8.112;2022-10-26T14:11:56;91382.53;;;17.34;57.69
69909;BME280;57190;47.918;8.112;2022-10-26T14:14:28;91382.84;;;17.32;57.63
69909;BME280;57190;47.918;8.112;2022-10-26T14:16:55;91396.13;;;17.28;57.87
69909;BME280;57190;47.918;8.112;2022-10-26T14:19:28;91397.25;;;17.08;58.31
69909;BME280;57190;47.918;8.112;2022-10-26T14:21:54;91400.72;;;16.90;58.42
69909;BME280;57190;47.918;8.112;2022-10-26T14:24:22;91397.69;;;16.77;58.70
69909;BME280;57190;47.918;8.112;2022-10-26T14:26:48;91397.00;;;16.66;59.02
69909;BME280;57190;47.918;8.112;2022-10-26T14:29:19;91396.00;;;16.62;58.90
69909;BME280;57190;47.918;8.112;2022-10-26T14:31:46;91398.31;;;16.50;60.29
69909;BME280;57190;47.918;8.112;2022-10-26T14:34:12;91396.34;;;16.37;61.63
69909;BME280;57190;47.918;8.112;2022-10-26T14:36:54;91399.59;;;16.33;62.09
69909;BME280;57190;47.918;8.112;2022-10-26T14:41:45;91402.75;;;16.41;62.31
69909;BME280;57190;47.918;8.112;2022-10-26T14:44:17;91398.59;;;16.29;62.91
69909;BME280;57190;47.918;8.112;2022-10-26T14:46:44;91405.06;;;16.28;61.97
69909;BME280;57190;47.918;8.112;2022-10-26T14:49:24;91405.91;;;16.24;62.36
69909;BME280;57190;47.918;8.112;2022-10-26T14:52:04;91409.31;;;16.10;62.99
69909;BME280;57190;47.918;8.112;2022-10-26T14:54:29;91412.16;;;16.19;63.33
69909;BME280;57190;47.918;8.112;2022-10-26T14:56:56;91411.97;;;16.34;62.24
69909;BME280;57190;47.918;8.112;2022-10-26T14:59:27;91412.50;;;16.37;61.95
69909;BME280;57190;47.918;8.112;2022-10-26T15:02:35;91409.22;;;16.40;61.39
69909;BME280;57190;47.918;8.112;2022-10-26T15:04:56;91413.66;;;16.30;61.97
69909;BME280;57190;47.918;8.112;2022-10-26T15:07:22;91413.91;;;16.29;61.37
69909;BME280;57190;47.918;8.112;2022-10-26T15:09:49;91411.28;;;16.24;61.37
69909;BME280;57190;47.918;8.112;2022-10-26T15:12:26;91416.31;;;16.11;61.92
69909;BME280;57190;47.918;8.112;2022-10-26T15:14:53;91418.81;;;16.02;61.84
69909;BME280;57190;47.918;8.112;2022-10-26T15:17:27;91419.44;;;15.94;62.70
69909;BME280;57190;47.918;8.112;2022-10-26T15:19:57;91422.50;;;15.82;63.26
69909;BME280;57190;47.918;8.112;2022-10-26T15:22:27;91422.13;;;15.65;64.48